Monroe, WI

5:26 AM CDT on May 29, 2017 (GMT -0500)
Monroe Municipal

Weather History for KEFT - February, 2014

Change the Weather History Date:

Wednesday, February 5, 2014

  Actual Average Record
Temperature  
Mean Temperature 10 °F -  
Max Temperature 19 °F 0 °F 46 °F (2005)
Min Temperature 0 °F - -18 °F (2007)
Degree Days  
Heating Degree Days 55    
Moisture  
Dew Point 11 °F    
Average Humidity 90    
Maximum Humidity 100    
Minimum Humidity 67    
Precipitation  
Precipitation 0.00 in - - ()
Sea Level Pressure  
Sea Level Pressure 30.26 in    
Wind  
Wind Speed 14 mph (NNW)    
Max Wind Speed 21 mph    
Max Gust Speed 26 mph    
Visibility 7 miles    
Events Snow    
Averages and records for this station are not official NWS values.
T = Trace of Precipitation, MM = Missing Value Source: NWS Daily Summary

Daily Weather History Graph

Daily Weather History Graph

Search for Another Location

Airport or City:

Trip Planner

Search our weather history database for the weather conditions in past years. The results will help you decide how hot, cold, wet, or windy it might be!

Date:

Astronomy

Feb. 05, 2014 Rise Set
Actual Time 7:08 AM CST 5:17 PM CST
Civil Twilight 6:38 AM CST 5:46 PM CST
Nautical Twilight 6:04 AM CST 6:20 PM CST
Astronomical Twilight 5:32 AM CST 6:53 PM CST
Moon 10:13 AM CST (2/5) No Moon Set
Length of Visible Light 11h 08m
Length of Day
10h 09m
Waxing Crescent, 39% of the Moon is Illuminated
Feb 5
Waxing Crescent
Feb 6
First Quarter
Feb 14
Full
Feb 22
Last Quarter
Mar 1
New

Hourly Weather History & Observations

Time (CST) Temp. Windchill Dew Point Humidity Pressure Visibility Wind Dir Wind Speed Gust Speed Precip Events Conditions
12:15 AM 16.5 °F 2.4 °F 16.5 °F 100% 30.14 in 3.0 mi North 13.8 mph 18.4 mph N/A Snow Light Snow
12:35 AM 16.5 °F 0.8 °F 16.5 °F 100% 30.12 in 2.5 mi North 17.3 mph 23.0 mph N/A Snow Light Snow
12:55 AM 16.5 °F 0.8 °F 16.5 °F 100% 30.12 in 2.5 mi North 17.3 mph 24.2 mph N/A Snow Light Snow
1:15 AM 16.3 °F 1.6 °F 16.3 °F 100% 30.12 in 2.5 mi North 15.0 mph 21.9 mph N/A Snow Light Snow
1:35 AM 16.3 °F 1.0 °F 16.3 °F 100% 30.12 in 2.5 mi North 16.1 mph 23.0 mph N/A Snow Light Snow
1:55 AM 16.5 °F 1.8 °F 16.5 °F 100% 30.12 in 3.0 mi North 15.0 mph 23.0 mph N/A Snow Light Snow
2:15 AM 16.7 °F 2.6 °F 16.7 °F 100% 30.12 in 3.0 mi North 13.8 mph 23.0 mph N/A Snow Light Snow
2:35 AM 16.7 °F 1.0 °F 16.7 °F 100% 30.12 in 2.5 mi North 17.3 mph 23.0 mph N/A Snow Light Snow
2:55 AM 16.7 °F 1.0 °F 16.7 °F 100% 30.11 in 2.0 mi North 17.3 mph 24.2 mph N/A Snow Light Snow
3:15 AM 16.5 °F 1.3 °F 16.5 °F 100% 30.11 in 2.5 mi North 16.1 mph 26.5 mph N/A Snow Light Snow
3:35 AM 16.3 °F 1.0 °F 16.3 °F 100% 30.10 in 2.5 mi North 16.1 mph 24.2 mph N/A Snow Light Snow
3:55 AM 16.3 °F 1.6 °F 16.3 °F 100% 30.11 in 3.0 mi North 15.0 mph 25.3 mph N/A Snow Light Snow
4:15 AM 15.8 °F -0.6 °F 15.8 °F 100% 30.10 in 3.0 mi North 18.4 mph 26.5 mph N/A Snow Light Snow
4:35 AM 15.8 °F -1.5 °F 15.8 °F 100% 30.11 in 4.0 mi North 20.7 mph 26.5 mph N/A   Overcast
4:55 AM 15.8 °F -1.1 °F 15.8 °F 100% 30.11 in 4.0 mi North 19.6 mph 25.3 mph N/A   Overcast
5:15 AM 15.6 °F -0.9 °F 15.6 °F 100% 30.12 in 4.0 mi North 18.4 mph 24.2 mph N/A   Overcast
5:35 AM 15.6 °F 0.1 °F 15.6 °F 100% 30.13 in 5.0 mi North 16.1 mph 23.0 mph N/A   Overcast
5:55 AM 15.6 °F -0.9 °F 15.6 °F 100% 30.14 in 5.0 mi North 18.4 mph 24.2 mph N/A   Overcast
6:15 AM 15.6 °F 1.8 °F 15.6 °F 100% 30.14 in 5.0 mi North 12.7 mph 25.3 mph N/A   Overcast
6:35 AM 15.6 °F 1.2 °F 15.6 °F 100% 30.15 in 7.0 mi North 13.8 mph 23.0 mph N/A   Overcast
6:55 AM 15.4 °F 0.4 °F 15.4 °F 100% 30.16 in 5.0 mi North 15.0 mph 24.2 mph N/A   Overcast
7:15 AM 14.9 °F -1.8 °F 14.9 °F 100% 30.17 in 3.0 mi North 18.4 mph 24.2 mph N/A Snow Light Snow
7:35 AM 14.7 °F -2.0 °F 14.7 °F 100% 30.19 in 4.0 mi North 18.4 mph 25.3 mph N/A   Overcast
7:55 AM 14.9 °F -1.8 °F 14.9 °F 100% 30.20 in 5.0 mi North 18.4 mph 23.0 mph N/A   Overcast
8:15 AM 15.1 °F -0.6 °F 15.1 °F 100% 30.21 in 4.0 mi North 16.1 mph 23.0 mph N/A   Overcast
8:35 AM 14.9 °F 0.3 °F 14.9 °F 100% 30.22 in 4.0 mi North 13.8 mph 23.0 mph N/A   Overcast
8:55 AM 14.9 °F -0.8 °F 14.9 °F 100% 30.23 in 5.0 mi North 16.1 mph 24.2 mph N/A   Overcast
9:15 AM 15.4 °F 0.4 °F 14.7 °F 97% 30.25 in 3.0 mi North 15.0 mph 21.9 mph N/A Snow Light Snow
9:35 AM 15.8 °F -0.6 °F 14.2 °F 93% 30.24 in 5.0 mi North 18.4 mph 25.3 mph N/A   Overcast
9:55 AM 16.2 °F 0.8 °F 13.8 °F 90% 30.25 in 5.0 mi North 16.1 mph 21.9 mph N/A   Overcast
10:15 AM 16.7 °F 2.6 °F 12.2 °F 82% 30.26 in 7.0 mi North 13.8 mph 19.6 mph N/A   Scattered Clouds
10:35 AM 17.1 °F 2.0 °F 10.4 °F 75% 30.27 in 10.0 mi North 16.1 mph 20.7 mph N/A   Scattered Clouds
10:55 AM 18.0 °F 6.1 °F 10.0 °F 71% 30.28 in 10.0 mi North 10.4 mph 18.4 mph N/A   Scattered Clouds
11:15 AM 18.0 °F 4.2 °F 9.1 °F 68% 30.28 in 10.0 mi North 13.8 mph - N/A   Clear
11:35 AM 18.5 °F 6.8 °F 9.5 °F 68% 30.28 in 10.0 mi North 10.4 mph 19.6 mph N/A   Clear
11:55 AM 18.7 °F 5.7 °F 9.9 °F 69% 30.28 in 10.0 mi North 12.7 mph 18.4 mph N/A   Clear
12:15 PM 18.9 °F 5.9 °F 9.7 °F 67% 30.28 in 10.0 mi North 12.7 mph 16.1 mph N/A   Clear
12:35 PM 19.0 °F 11.1 °F 10.2 °F 69% 30.28 in 10.0 mi North 5.8 mph - N/A   Scattered Clouds
12:55 PM 19.4 °F 9.5 °F 10.6 °F 69% 30.28 in 10.0 mi NNW 8.1 mph - N/A   Overcast
1:15 PM 19.4 °F 11.5 °F 10.8 °F 69% 30.29 in 10.0 mi NW 5.8 mph - N/A   Overcast
1:35 PM 19.8 °F 9.9 °F 10.8 °F 68% 30.29 in 7.0 mi NNW 8.1 mph - N/A   Overcast
1:55 PM 19.9 °F 10.1 °F 10.9 °F 68% 30.29 in 7.0 mi NNW 8.1 mph - N/A Snow Light Snow
2:15 PM 19.8 °F 9.1 °F 10.4 °F 67% 30.30 in 10.0 mi NW 9.2 mph - N/A   Overcast
2:35 PM 19.4 °F 11.5 °F 10.6 °F 69% 30.30 in 10.0 mi NNW 5.8 mph - N/A   Overcast
2:55 PM 19.4 °F 7.2 °F 10.4 °F 68% 30.31 in 10.0 mi NW 11.5 mph - N/A   Mostly Cloudy
3:15 PM 19.0 °F 9.0 °F 9.9 °F 67% 30.32 in 10.0 mi NW 8.1 mph - N/A   Mostly Cloudy
3:35 PM 18.5 °F 13.3 °F 9.5 °F 68% 30.32 in 10.0 mi NNW 3.5 mph - N/A   Scattered Clouds
3:55 PM 18.1 °F 10.0 °F 9.5 °F 69% 30.33 in 10.0 mi NW 5.8 mph - N/A   Scattered Clouds
4:15 PM 17.4 °F 10.4 °F 8.1 °F 67% 30.34 in 10.0 mi NW 4.6 mph - N/A   Scattered Clouds
4:35 PM 16.7 °F 5.3 °F 9.3 °F 73% 30.35 in 10.0 mi West 9.2 mph - N/A Snow Light Snow
4:55 PM 15.8 °F 4.2 °F 11.1 °F 82% 30.35 in 7.0 mi WNW 9.2 mph - N/A   Overcast
5:15 PM 14.9 °F 4.0 °F 13.1 °F 93% 30.36 in 7.0 mi West 8.1 mph - N/A Snow Light Snow
5:35 PM 13.8 °F 1.0 °F 12.9 °F 96% 30.37 in 7.0 mi West 10.4 mph - N/A Snow Light Snow
5:55 PM 12.9 °F -0.2 °F 12.7 °F 99% 30.37 in 10.0 mi West 10.4 mph - N/A Snow Light Snow
6:15 PM 12.0 °F -1.3 °F 11.8 °F 99% 30.37 in 10.0 mi West 10.4 mph - N/A Snow Light Snow
6:35 PM 11.7 °F -1.7 °F 11.5 °F 99% 30.37 in 10.0 mi West 10.4 mph - N/A Snow Light Snow
6:55 PM 10.9 °F -2.6 °F 10.9 °F 100% 30.38 in 10.0 mi West 10.4 mph - N/A Snow Light Snow
7:15 PM 10.2 °F -3.5 °F 10.0 °F 99% 30.37 in 10.0 mi West 10.4 mph - N/A   Clear
7:35 PM 9.3 °F -5.4 °F 8.6 °F 97% 30.38 in 10.0 mi West 11.5 mph - N/A   Clear
7:55 PM 8.6 °F -5.5 °F 7.7 °F 96% 30.38 in 10.0 mi West 10.4 mph - N/A   Clear
8:15 PM 7.5 °F -7.7 °F 6.6 °F 96% 30.39 in 10.0 mi West 11.5 mph - N/A   Clear
8:35 PM 7.0 °F -8.3 °F 6.1 °F 96% 30.40 in 10.0 mi West 11.5 mph - N/A   Clear
9:00 PM 6.6 °F -8.8 °F 5.9 °F 97% 30.40 in 10.0 mi West 11.5 mph - N/A   Clear
9:15 PM 6.1 °F -10.2 °F 5.4 °F 97% 30.39 in 10.0 mi West 12.7 mph - N/A   Clear
9:35 PM 5.4 °F -10.4 °F 4.8 °F 98% 30.39 in 10.0 mi West 11.5 mph - N/A   Clear
9:55 PM 4.8 °F -11.8 °F 4.1 °F 97% 30.39 in 10.0 mi West 12.7 mph - N/A   Clear
10:15 PM 3.9 °F -13.0 °F 3.4 °F 98% 30.39 in 10.0 mi WNW 12.7 mph - N/A   Clear
10:35 PM 3.2 °F -13.1 °F 2.3 °F 96% 30.39 in 10.0 mi WNW 11.5 mph - N/A   Clear
10:55 PM 2.7 °F -13.8 °F 1.8 °F 96% 30.39 in 10.0 mi WNW 11.5 mph - N/A   Clear
11:15 PM 1.9 °F -13.8 °F 1.0 °F 96% 30.39 in 10.0 mi WNW 10.4 mph - N/A   Clear
11:35 PM 1.4 °F -9.9 °F 0.5 °F 96% 30.39 in 10.0 mi West 5.8 mph - N/A   Clear
11:55 PM 0.9 °F -14.2 °F -0.2 °F 95% 30.39 in 10.0 mi WNW 9.2 mph - N/A   Clear